createdAt,value
2019-01-24T00:01:01.309Z,-2.18
2019-01-24T00:03:51.027Z,-2.21
2019-01-24T00:06:40.883Z,-2.26
2019-01-24T00:09:30.655Z,-2.28
2019-01-24T00:12:20.309Z,-2.32
2019-01-24T00:15:11.058Z,-2.36
2019-01-24T00:18:00.909Z,-2.36
2019-01-24T00:20:50.752Z,-2.37
2019-01-24T00:23:42.161Z,-2.39
2019-01-24T00:26:32.025Z,-2.37
2019-01-24T00:29:22.227Z,-2.38
2019-01-24T00:32:11.367Z,-2.38
2019-01-24T00:35:01.664Z,-2.37
2019-01-24T00:37:51.555Z,-2.36
2019-01-24T00:40:41.863Z,-2.35
2019-01-24T00:43:32.045Z,-2.33
2019-01-24T00:46:21.805Z,-2.33
2019-01-24T00:49:12.176Z,-2.33
2019-01-24T00:52:02.352Z,-2.32
2019-01-24T00:54:52.366Z,-2.31
2019-01-24T00:57:42.615Z,-2.29
2019-01-24T01:00:32.742Z,-2.29
2019-01-24T01:03:22.953Z,-2.31
2019-01-24T01:06:12.944Z,-2.30
2019-01-24T01:09:03.421Z,-2.32
2019-01-24T01:11:54.793Z,-2.31
2019-01-24T01:14:44.634Z,-2.33
2019-01-24T01:17:34.492Z,-2.32
2019-01-24T01:20:25.195Z,-2.34
2019-01-24T01:23:15.937Z,-2.34
2019-01-24T01:26:06.587Z,-2.31
2019-01-24T01:28:56.783Z,-2.28
2019-01-24T01:31:46.744Z,-2.28
2019-01-24T01:34:37.825Z,-2.23
2019-01-24T01:37:27.663Z,-2.23
2019-01-24T01:40:18.174Z,-2.21
2019-01-24T01:43:08.054Z,-2.22
2019-01-24T01:45:58.231Z,-2.21
2019-01-24T01:48:48.206Z,-2.21
2019-01-24T01:51:38.235Z,-2.20
2019-01-24T01:54:28.202Z,-2.18
2019-01-24T01:57:18.172Z,-2.15
2019-01-24T02:00:10.232Z,-2.13
2019-01-24T02:02:59.986Z,-2.08
2019-01-24T02:05:50.045Z,-2.02
2019-01-24T02:08:40.143Z,-1.92
2019-01-24T02:11:30.596Z,-1.83
2019-01-24T02:14:19.860Z,-1.75
2019-01-24T02:17:09.966Z,-1.67
2019-01-24T02:19:59.794Z,-1.58
2019-01-24T02:22:49.887Z,-1.52
2019-01-24T02:25:40.006Z,-1.48
2019-01-24T02:28:30.134Z,-1.42
2019-01-24T02:31:20.104Z,-1.39
2019-01-24T02:34:09.520Z,-1.35
2019-01-24T02:36:59.311Z,-1.31
2019-01-24T02:39:57.854Z,-1.29
2019-01-24T02:42:47.877Z,-1.25
2019-01-24T02:45:37.744Z,-1.29
2019-01-24T02:48:27.335Z,-1.23
2019-01-24T02:51:17.651Z,-1.16
2019-01-24T02:54:07.883Z,-1.11
2019-01-24T02:56:58.180Z,-1.04
2019-01-24T02:59:48.338Z,-0.99
2019-01-24T03:02:38.348Z,-0.92
2019-01-24T03:05:28.233Z,-0.90
2019-01-24T03:08:18.229Z,-0.93
2019-01-24T03:11:08.273Z,-0.87
2019-01-24T03:13:58.091Z,-0.82
2019-01-24T03:16:48.413Z,-0.79
2019-01-24T03:19:38.322Z,-0.75
2019-01-24T03:22:28.495Z,-0.74
2019-01-24T03:25:19.541Z,-0.72
2019-01-24T03:28:09.935Z,-0.66
2019-01-24T03:30:59.907Z,-0.64
2019-01-24T03:33:50.101Z,-0.61
2019-01-24T03:36:40.555Z,-0.57
2019-01-24T03:39:30.732Z,-0.55
2019-01-24T03:42:20.782Z,-0.51
2019-01-24T03:45:13.565Z,-0.55
2019-01-24T03:48:03.350Z,-0.51
2019-01-24T03:50:53.496Z,-0.51
2019-01-24T03:53:43.595Z,-0.48
2019-01-24T03:56:33.637Z,-0.47
2019-01-24T03:59:23.514Z,-0.47
2019-01-24T04:02:13.386Z,-0.45
2019-01-24T04:05:03.842Z,-0.43
2019-01-24T04:07:54.206Z,-0.42
2019-01-24T04:10:44.430Z,-0.42
2019-01-24T04:13:34.694Z,-0.42
2019-01-24T04:16:24.918Z,-0.45
2019-01-24T04:19:14.754Z,-0.44
2019-01-24T04:22:04.680Z,-0.45
2019-01-24T04:24:54.692Z,-0.45
2019-01-24T04:27:44.691Z,-0.41
2019-01-24T04:30:35.822Z,-0.37
2019-01-24T04:33:25.556Z,-0.35
2019-01-24T04:36:15.630Z,-0.30
2019-01-24T04:39:08.323Z,-0.26
2019-01-24T04:41:57.956Z,-0.26
2019-01-24T04:44:47.840Z,-0.24
2019-01-24T04:47:37.587Z,-0.19
2019-01-24T04:50:27.090Z,-0.19
2019-01-24T04:53:17.243Z,-0.19
2019-01-24T04:56:07.353Z,-0.22
2019-01-24T04:58:57.333Z,-0.20
2019-01-24T05:01:48.530Z,-0.17
2019-01-24T05:04:38.512Z,-0.12
2019-01-24T05:07:28.924Z,-0.13
2019-01-24T05:10:18.635Z,-0.09
2019-01-24T05:13:08.184Z,-0.04
2019-01-24T05:15:58.453Z,-0.06
2019-01-24T05:18:49.041Z,0.00
2019-01-24T05:21:39.129Z,-0.02
2019-01-24T05:24:28.794Z,-0.01
2019-01-24T05:27:18.574Z,0.02
2019-01-24T05:30:25.230Z,0.07
2019-01-24T05:33:15.343Z,0.06
2019-01-24T05:36:05.847Z,0.06
2019-01-24T05:38:56.171Z,0.10
2019-01-24T05:41:46.250Z,0.14
2019-01-24T05:44:36.236Z,0.14
2019-01-24T05:47:26.172Z,0.17
2019-01-24T05:50:16.219Z,0.09
2019-01-24T05:53:06.139Z,0.03
2019-01-24T05:55:56.284Z,0.10
2019-01-24T05:58:46.034Z,0.11
2019-01-24T06:01:36.614Z,0.09
2019-01-24T06:04:26.456Z,0.06
2019-01-24T06:07:16.407Z,-0.09
2019-01-24T06:10:10.148Z,-0.04
2019-01-24T06:12:59.980Z,-0.02
2019-01-24T06:15:50.067Z,-0.18
2019-01-24T06:18:39.974Z,-0.02
2019-01-24T06:21:30.087Z,0.03
2019-01-24T06:24:19.890Z,0.01
2019-01-24T06:27:10.273Z,0.02
2019-01-24T06:30:00.321Z,0.06
2019-01-24T06:32:49.851Z,0.09
2019-01-24T06:35:40.006Z,0.16
2019-01-24T06:38:29.956Z,0.18
2019-01-24T06:41:20.308Z,0.17
2019-01-24T06:44:10.297Z,0.21
2019-01-24T06:47:00.406Z,0.22
2019-01-24T06:49:49.952Z,0.18
2019-01-24T06:52:40.067Z,0.20
2019-01-24T06:55:30.538Z,0.15
2019-01-24T06:58:20.666Z,0.16
2019-01-24T07:01:10.652Z,0.18
2019-01-24T07:04:00.153Z,0.21
2019-01-24T07:06:50.374Z,0.17
2019-01-24T07:09:40.292Z,0.20
2019-01-24T07:12:29.867Z,0.23
2019-01-24T07:15:22.066Z,0.21
2019-01-24T07:18:12.007Z,0.21
2019-01-24T07:21:01.847Z,0.27
2019-01-24T07:23:52.314Z,0.26
2019-01-24T07:26:42.441Z,0.32
2019-01-24T07:29:32.754Z,0.36
2019-01-24T07:32:23.011Z,0.32
2019-01-24T07:35:15.274Z,0.35
2019-01-24T07:38:06.315Z,0.37
2019-01-24T07:40:56.349Z,0.40
2019-01-24T07:43:46.715Z,0.38
2019-01-24T07:46:37.156Z,0.44
2019-01-24T07:49:27.231Z,0.49
2019-01-24T07:52:17.422Z,0.51
2019-01-24T07:55:08.022Z,0.49
2019-01-24T07:57:58.018Z,0.45
2019-01-24T08:00:48.451Z,0.53
2019-01-24T08:03:38.476Z,0.55
2019-01-24T08:06:28.423Z,0.58
2019-01-24T08:09:18.417Z,0.59
2019-01-24T08:12:08.376Z,0.64
2019-01-24T08:14:58.486Z,0.65
2019-01-24T08:17:48.197Z,0.63
2019-01-24T08:20:38.127Z,0.68
2019-01-24T08:23:28.141Z,0.73
2019-01-24T08:26:17.938Z,0.70
2019-01-24T08:29:07.986Z,0.77
2019-01-24T08:31:57.518Z,0.77
2019-01-24T08:34:47.561Z,0.80
2019-01-24T08:37:37.449Z,0.79
2019-01-24T08:40:27.716Z,0.77
2019-01-24T08:43:17.864Z,0.76
2019-01-24T08:46:08.115Z,0.73
2019-01-24T08:48:57.985Z,0.78
2019-01-24T08:51:47.785Z,0.80
2019-01-24T08:54:37.768Z,0.85
2019-01-24T08:57:27.295Z,0.86
2019-01-24T09:00:19.550Z,0.80
2019-01-24T09:03:09.236Z,0.85
2019-01-24T09:05:59.176Z,0.87
2019-01-24T09:08:48.810Z,0.88
2019-01-24T09:11:38.731Z,0.87
2019-01-24T09:14:29.047Z,0.90
2019-01-24T09:17:19.168Z,0.90
2019-01-24T09:20:12.563Z,0.99
2019-01-24T09:23:02.265Z,1.01
2019-01-24T09:25:51.737Z,1.02
2019-01-24T09:28:41.766Z,0.98
2019-01-24T09:31:32.057Z,1.00
2019-01-24T09:34:22.302Z,1.02
2019-01-24T09:37:12.140Z,1.08
2019-01-24T09:40:02.402Z,1.10
2019-01-24T09:42:52.905Z,1.14
2019-01-24T09:45:43.350Z,1.16
2019-01-24T09:48:33.414Z,0.86
2019-01-24T09:51:23.204Z,1.00
2019-01-24T09:54:13.241Z,1.05
2019-01-24T09:57:03.343Z,1.05
2019-01-24T09:59:53.164Z,1.01
2019-01-24T10:02:43.152Z,1.03
2019-01-24T10:05:33.052Z,1.05
2019-01-24T10:08:22.977Z,1.08
2019-01-24T10:11:12.963Z,0.97
2019-01-24T10:14:02.690Z,1.01
2019-01-24T10:16:53.834Z,1.05
2019-01-24T10:19:43.596Z,1.18
2019-01-24T10:22:33.107Z,1.28
2019-01-24T10:25:29.621Z,1.38
2019-01-24T10:28:20.040Z,1.40
2019-01-24T10:31:10.116Z,1.46
2019-01-24T10:34:00.314Z,1.43
2019-01-24T10:36:51.381Z,1.54
2019-01-24T10:39:41.263Z,1.55
2019-01-24T10:42:30.953Z,1.59
2019-01-24T10:45:21.911Z,1.65
2019-01-24T10:48:11.922Z,1.73
2019-01-24T10:51:01.627Z,1.73
2019-01-24T10:53:52.004Z,1.82
2019-01-24T10:56:41.725Z,1.84
2019-01-24T10:59:31.844Z,1.90
2019-01-24T11:02:21.810Z,2.01
2019-01-24T11:05:13.376Z,1.91
2019-01-24T11:08:03.877Z,1.97
2019-01-24T11:10:53.837Z,1.74
2019-01-24T11:13:43.730Z,1.86
2019-01-24T11:16:33.523Z,1.96
2019-01-24T11:19:23.354Z,2.02
2019-01-24T11:22:13.080Z,2.10
2019-01-24T11:25:02.888Z,2.12
2019-01-24T11:27:53.011Z,2.19
2019-01-24T11:30:42.759Z,2.22
2019-01-24T11:33:32.752Z,2.23
2019-01-24T11:36:22.831Z,2.18
2019-01-24T11:39:12.751Z,2.19
2019-01-24T11:42:03.009Z,2.19
2019-01-24T11:44:53.207Z,2.27
2019-01-24T11:47:43.772Z,2.37
2019-01-24T11:50:33.353Z,2.23
2019-01-24T11:56:24.533Z,2.28
2019-01-24T11:59:14.580Z,2.19
2019-01-24T12:02:04.685Z,2.18
2019-01-24T12:04:53.996Z,2.01
2019-01-24T12:07:44.854Z,2.03
2019-01-24T12:10:34.754Z,2.19
2019-01-24T12:13:24.840Z,2.22
2019-01-24T12:16:14.663Z,2.26
2019-01-24T12:19:04.499Z,2.28
2019-01-24T12:21:54.241Z,2.32
2019-01-24T12:24:44.075Z,2.34
2019-01-24T12:27:35.075Z,2.30
2019-01-24T12:30:33.713Z,2.32
2019-01-24T12:33:25.340Z,2.24
2019-01-24T12:36:15.067Z,2.33
2019-01-24T12:39:08.982Z,2.33
2019-01-24T12:41:58.815Z,2.33
2019-01-24T12:44:48.518Z,2.37
2019-01-24T12:47:38.568Z,2.36
2019-01-24T12:50:28.186Z,2.39
2019-01-24T12:53:18.120Z,2.31
2019-01-24T12:56:08.409Z,2.24
2019-01-24T12:58:58.913Z,2.33
2019-01-24T13:01:49.335Z,2.35
2019-01-24T13:04:39.395Z,2.13
2019-01-24T13:07:29.804Z,2.28
2019-01-24T13:10:22.441Z,2.33
2019-01-24T13:13:11.822Z,2.36
2019-01-24T13:16:01.914Z,2.32
2019-01-24T13:18:52.183Z,2.28
2019-01-24T13:21:42.333Z,2.28
2019-01-24T13:24:32.466Z,2.27
2019-01-24T13:27:22.149Z,2.24
2019-01-24T13:30:22.735Z,2.17
2019-01-24T13:33:12.719Z,2.19
2019-01-24T13:36:02.442Z,2.11
2019-01-24T13:38:52.645Z,2.14
2019-01-24T13:41:42.799Z,2.14
2019-01-24T13:44:32.789Z,2.07
2019-01-24T13:47:22.342Z,2.07
2019-01-24T13:50:15.181Z,1.99
2019-01-24T13:53:05.987Z,1.99
2019-01-24T13:55:57.014Z,1.96
2019-01-24T13:58:47.400Z,1.96
2019-01-24T14:01:36.930Z,1.93
2019-01-24T14:04:36.787Z,1.91
2019-01-24T14:07:32.831Z,1.80
2019-01-24T14:10:18.208Z,1.86
2019-01-24T14:13:08.013Z,1.90
2019-01-24T14:15:59.221Z,1.91
2019-01-24T14:18:49.529Z,1.95
2019-01-24T14:21:39.834Z,1.96
2019-01-24T14:24:29.634Z,1.95
2019-01-24T14:27:20.768Z,1.93
2019-01-24T14:30:22.334Z,1.91
2019-01-24T14:33:13.037Z,1.82
2019-01-24T14:36:04.673Z,1.83
2019-01-24T14:38:56.417Z,1.56
2019-01-24T14:41:47.967Z,1.72
2019-01-24T14:44:40.434Z,1.75
2019-01-24T14:47:32.416Z,1.74
2019-01-24T14:50:27.750Z,1.76
2019-01-24T14:53:21.208Z,1.73
2019-01-24T14:56:13.958Z,1.69
2019-01-24T14:59:07.344Z,1.63
2019-01-24T15:02:00.396Z,1.58
2019-01-24T15:04:53.576Z,1.64
2019-01-24T15:07:47.348Z,1.63
2019-01-24T15:10:40.462Z,1.63
2019-01-24T15:13:32.908Z,1.65
2019-01-24T15:16:24.587Z,1.67
2019-01-24T15:19:15.672Z,1.63
2019-01-24T15:22:06.363Z,1.61
2019-01-24T15:24:58.152Z,1.60
2019-01-24T15:27:49.504Z,1.61
2019-01-24T15:30:42.097Z,1.59
2019-01-24T15:33:34.664Z,1.55
2019-01-24T15:36:27.429Z,1.48
2019-01-24T15:39:19.351Z,1.44
2019-01-24T15:42:11.510Z,1.34
2019-01-24T15:45:03.671Z,1.36
2019-01-24T15:47:57.078Z,1.38
2019-01-24T15:50:50.478Z,1.34
2019-01-24T15:53:45.153Z,1.38
2019-01-24T15:56:38.435Z,1.37
2019-01-24T15:59:30.691Z,1.38
2019-01-24T16:02:24.700Z,1.42
2019-01-24T16:05:17.498Z,1.40
2019-01-24T16:08:09.595Z,1.40
2019-01-24T16:11:01.053Z,1.39
2019-01-24T16:13:53.079Z,1.38
2019-01-24T16:16:46.344Z,1.38
2019-01-24T16:19:39.538Z,1.31
2019-01-24T16:22:30.779Z,1.33
2019-01-24T16:25:23.228Z,1.28
2019-01-24T16:28:15.047Z,1.32
2019-01-24T16:31:07.140Z,1.29
2019-01-24T16:33:59.654Z,1.28
2019-01-24T16:36:50.859Z,1.29
2019-01-24T16:39:44.274Z,1.26
2019-01-24T16:42:35.945Z,1.24
2019-01-24T16:45:30.905Z,1.24
2019-01-24T16:48:25.633Z,1.29
2019-01-24T16:51:16.964Z,1.25
2019-01-24T16:54:09.111Z,1.30
2019-01-24T16:57:02.228Z,1.33
2019-01-24T16:59:54.648Z,1.31
2019-01-24T17:02:48.473Z,1.33
2019-01-24T17:05:40.457Z,1.30
2019-01-24T17:08:34.190Z,1.32
2019-01-24T17:11:25.857Z,1.30
2019-01-24T17:14:22.333Z,1.29
2019-01-24T17:17:14.271Z,1.29
2019-01-24T17:20:13.479Z,1.28
2019-01-24T17:23:08.483Z,1.24
2019-01-24T17:26:01.701Z,1.17
2019-01-24T17:28:55.346Z,1.19
2019-01-24T17:31:49.963Z,1.20
2019-01-24T17:34:44.754Z,1.19
2019-01-24T17:37:39.554Z,1.18
2019-01-24T17:40:34.062Z,1.17
2019-01-24T17:43:27.890Z,1.13
2019-01-24T17:46:20.781Z,1.10
2019-01-24T17:49:15.458Z,1.09
2019-01-24T17:52:09.488Z,1.08
2019-01-24T17:55:03.173Z,1.12
2019-01-24T17:57:55.053Z,1.15
2019-01-24T18:00:51.728Z,1.18
2019-01-24T18:03:45.476Z,1.19
2019-01-24T18:06:40.534Z,1.17
2019-01-24T18:09:35.279Z,1.13
2019-01-24T18:12:29.835Z,1.12
2019-01-24T18:15:31.759Z,1.11
2019-01-24T18:18:26.724Z,1.12
2019-01-24T18:21:24.565Z,1.09
2019-01-24T18:24:21.244Z,1.12
2019-01-24T18:27:17.501Z,1.11
2019-01-24T18:30:18.204Z,1.11
2019-01-24T18:33:13.661Z,1.07
2019-01-24T18:36:08.299Z,1.08
2019-01-24T18:39:05.059Z,1.04
2019-01-24T18:41:59.850Z,1.05
2019-01-24T18:44:54.309Z,1.04
2019-01-24T18:47:50.287Z,1.05
2019-01-24T18:50:48.719Z,1.08
2019-01-24T18:53:44.799Z,1.07
2019-01-24T18:56:39.672Z,1.07
2019-01-24T18:59:34.945Z,1.02
2019-01-24T19:02:31.458Z,1.01
2019-01-24T19:05:30.328Z,1.03
2019-01-24T19:08:28.091Z,1.01
2019-01-24T19:11:24.395Z,0.97
2019-01-24T19:14:39.129Z,0.93
2019-01-24T19:17:35.638Z,0.95
2019-01-24T19:20:33.368Z,0.95
2019-01-24T19:23:31.135Z,0.94
2019-01-24T19:26:27.484Z,0.91
2019-01-24T19:29:24.815Z,0.97
2019-01-24T19:32:23.043Z,0.94
2019-01-24T19:35:20.101Z,0.92
2019-01-24T19:38:17.135Z,0.86
2019-01-24T19:41:13.303Z,0.90
2019-01-24T19:44:15.671Z,0.93
2019-01-24T19:47:07.072Z,0.91
2019-01-24T19:50:05.114Z,0.92
2019-01-24T19:53:02.094Z,0.90
2019-01-24T19:56:00.886Z,0.85
2019-01-24T19:58:56.699Z,0.88
2019-01-24T20:01:53.351Z,0.89
2019-01-24T20:05:08.219Z,0.89
2019-01-24T20:08:06.643Z,0.90
2019-01-24T20:11:03.916Z,0.88
2019-01-24T20:14:01.102Z,0.90
2019-01-24T20:16:58.517Z,0.93
2019-01-24T20:20:12.717Z,0.97
2019-01-24T20:23:09.265Z,0.99
2019-01-24T20:26:07.280Z,1.00
2019-01-24T20:29:03.936Z,1.00
2019-01-24T20:32:01.107Z,0.97
2019-01-24T20:34:57.450Z,0.99
2019-01-24T20:37:50.954Z,0.99
2019-01-24T20:40:46.618Z,0.92
2019-01-24T20:43:43.635Z,0.92
2019-01-24T20:46:38.810Z,0.87
2019-01-24T20:49:35.476Z,0.88
2019-01-24T20:52:30.551Z,0.90
2019-01-24T20:55:26.043Z,0.89
2019-01-24T20:58:18.385Z,0.89
2019-01-24T21:01:14.163Z,0.90
2019-01-24T21:04:08.566Z,0.89
2019-01-24T21:07:04.449Z,0.90
2019-01-24T21:09:58.649Z,0.87
2019-01-24T21:12:53.258Z,0.87
2019-01-24T21:15:46.804Z,0.86
2019-01-24T21:18:40.989Z,0.83
2019-01-24T21:21:35.082Z,0.83
2019-01-24T21:24:26.508Z,0.83
2019-01-24T21:27:21.620Z,0.84
2019-01-24T21:30:22.001Z,0.84
2019-01-24T21:33:14.901Z,0.83
2019-01-24T21:36:08.454Z,0.87
2019-01-24T21:39:01.695Z,0.89
2019-01-24T21:41:55.345Z,0.89
2019-01-24T21:44:46.584Z,0.89
2019-01-24T21:47:37.898Z,0.89
2019-01-24T21:50:32.274Z,0.89
2019-01-24T21:53:24.335Z,0.90
2019-01-24T21:56:16.787Z,0.91
2019-01-24T21:59:08.682Z,0.94
2019-01-24T22:02:00.733Z,0.94
2019-01-24T22:04:51.040Z,0.97
2019-01-24T22:07:41.996Z,0.97
2019-01-24T22:10:32.264Z,0.95
2019-01-24T22:13:22.535Z,0.96
2019-01-24T22:16:15.308Z,0.95
2019-01-24T22:19:05.911Z,0.92
2019-01-24T22:21:56.585Z,0.89
2019-01-24T22:24:46.626Z,0.86
2019-01-24T22:27:36.751Z,0.85
2019-01-24T22:30:33.377Z,0.88
2019-01-24T22:33:25.322Z,0.88
2019-01-24T22:36:15.569Z,0.89
2019-01-24T22:39:09.650Z,0.90
2019-01-24T22:41:59.618Z,0.90
2019-01-24T22:44:50.054Z,0.91
2019-01-24T22:47:39.919Z,0.93
2019-01-24T22:50:30.235Z,0.93
2019-01-24T22:53:20.140Z,0.94
2019-01-24T22:56:10.394Z,0.95
2019-01-24T22:58:59.883Z,0.96
2019-01-24T23:02:02.491Z,0.97
2019-01-24T23:04:52.625Z,1.00
2019-01-24T23:07:42.269Z,0.99
2019-01-24T23:10:32.388Z,0.99
2019-01-24T23:13:22.256Z,0.99
2019-01-24T23:16:12.345Z,0.99
2019-01-24T23:19:02.229Z,0.94
2019-01-24T23:21:51.840Z,0.94
2019-01-24T23:24:42.115Z,0.94
2019-01-24T23:27:31.990Z,0.92
2019-01-24T23:30:21.851Z,0.91
2019-01-24T23:33:11.451Z,0.90
2019-01-24T23:36:01.023Z,0.91
2019-01-24T23:38:51.068Z,0.90
2019-01-24T23:41:40.952Z,0.88
2019-01-24T23:44:31.045Z,0.87
2019-01-24T23:47:20.638Z,0.87
2019-01-24T23:50:10.630Z,0.85
2019-01-24T23:53:00.723Z,0.89
2019-01-24T23:55:50.233Z,0.90
2019-01-24T23:58:40.071Z,0.91
